createdAt,value
2023-03-02T00:00:47.737Z,13.45
2023-03-02T00:03:18.374Z,13.40
2023-03-02T00:05:47.254Z,14.05
2023-03-02T00:08:17.592Z,13.82
2023-03-02T00:10:44.497Z,15.10
2023-03-02T00:13:12.589Z,13.65
2023-03-02T00:15:39.382Z,14.90
2023-03-02T00:18:06.100Z,15.38
2023-03-02T00:20:34.605Z,14.93
2023-03-02T00:23:01.251Z,14.45
2023-03-02T00:25:28.807Z,15.93
2023-03-02T00:27:58.540Z,16.33
2023-03-02T00:30:25.192Z,15.98
2023-03-02T00:32:52.058Z,14.80
2023-03-02T00:35:18.731Z,14.27
2023-03-02T00:37:45.427Z,14.18
2023-03-02T00:40:12.439Z,14.73
2023-03-02T00:42:39.373Z,14.93
2023-03-02T00:45:07.100Z,14.95
2023-03-02T00:47:35.381Z,15.02
2023-03-02T00:50:02.569Z,15.60
2023-03-02T00:52:33.685Z,14.15
2023-03-02T00:55:00.251Z,14.52
2023-03-02T00:57:26.920Z,13.82
2023-03-02T00:59:53.597Z,14.00
2023-03-02T01:02:21.780Z,15.13
2023-03-02T01:04:48.835Z,14.57
2023-03-02T01:07:18.347Z,14.07
2023-03-02T01:09:45.828Z,14.13
2023-03-02T01:12:12.959Z,15.07
2023-03-02T01:14:44.848Z,14.63
2023-03-02T01:17:12.321Z,14.50
2023-03-02T01:19:40.042Z,14.07
2023-03-02T01:22:07.605Z,13.80
2023-03-02T01:24:34.150Z,14.20
2023-03-02T01:27:00.720Z,14.48
2023-03-02T01:29:27.566Z,13.75
2023-03-02T01:31:54.316Z,15.20
2023-03-02T01:34:21.267Z,15.30
2023-03-02T01:36:47.843Z,15.05
2023-03-02T01:39:17.528Z,13.68
2023-03-02T01:41:45.834Z,14.90
2023-03-02T01:44:39.388Z,14.93
2023-03-02T01:47:20.861Z,14.77
2023-03-02T01:49:59.275Z,14.45
2023-03-02T01:52:27.112Z,14.20
2023-03-02T01:54:55.893Z,15.23
2023-03-02T01:57:29.471Z,14.27
2023-03-02T02:00:08.603Z,14.65
2023-03-02T02:02:36.693Z,15.13
2023-03-02T02:05:04.114Z,13.55
2023-03-02T02:07:31.297Z,13.95
2023-03-02T02:09:58.184Z,14.68
2023-03-02T02:12:24.811Z,13.63
2023-03-02T02:14:51.768Z,14.88
2023-03-02T02:17:19.630Z,15.70
2023-03-02T02:19:58.081Z,13.57
2023-03-02T02:22:46.725Z,14.98
2023-03-02T02:25:53.231Z,15.70
2023-03-02T02:28:33.134Z,15.45
2023-03-02T02:31:26.800Z,13.57
2023-03-02T02:33:58.087Z,15.38
2023-03-02T02:36:33.396Z,15.90
2023-03-02T02:39:04.319Z,14.60
2023-03-02T02:41:36.446Z,15.88
2023-03-02T02:44:03.156Z,15.38
2023-03-02T02:46:29.861Z,16.42
2023-03-02T02:48:56.714Z,16.17
2023-03-02T02:51:26.814Z,16.20
2023-03-02T02:53:59.906Z,16.38
2023-03-02T02:56:38.355Z,18.25
2023-03-02T02:59:16.731Z,17.45
2023-03-02T03:01:44.627Z,16.25
2023-03-02T03:04:14.074Z,16.58
2023-03-02T03:06:50.663Z,17.30
2023-03-02T03:09:17.356Z,16.27
2023-03-02T03:11:50.537Z,16.00
2023-03-02T03:14:20.223Z,16.95
2023-03-02T03:16:48.488Z,16.42
2023-03-02T03:19:22.946Z,18.05
2023-03-02T03:21:52.636Z,16.55
2023-03-02T03:24:19.903Z,16.05
2023-03-02T03:26:47.128Z,16.63
2023-03-02T03:29:14.662Z,16.77
2023-03-02T03:31:41.826Z,17.35
2023-03-02T03:34:09.178Z,16.25
2023-03-02T03:36:37.395Z,16.70
2023-03-02T03:39:05.939Z,16.80
2023-03-02T03:41:33.215Z,16.77
2023-03-02T03:44:00.041Z,16.15
2023-03-02T03:46:27.981Z,17.67
2023-03-02T03:48:54.696Z,18.27
2023-03-02T03:51:21.681Z,17.15
2023-03-02T03:53:59.736Z,17.10
2023-03-02T03:56:28.163Z,17.45
2023-03-02T03:59:06.242Z,17.67
2023-03-02T04:01:39.545Z,17.90
2023-03-02T04:04:08.019Z,17.15
2023-03-02T04:06:34.949Z,15.77
2023-03-02T04:09:04.947Z,16.50
2023-03-02T04:11:34.346Z,16.58
2023-03-02T04:14:01.022Z,16.58
2023-03-02T04:16:28.375Z,16.92
2023-03-02T04:18:54.942Z,17.23
2023-03-02T04:21:21.554Z,17.20
2023-03-02T04:23:48.280Z,16.50
2023-03-02T04:26:15.126Z,18.02
2023-03-02T04:28:41.793Z,17.60
2023-03-02T04:31:08.512Z,16.90
2023-03-02T04:33:35.293Z,17.05
2023-03-02T04:36:02.087Z,17.23
2023-03-02T04:38:29.602Z,17.52
2023-03-02T04:40:57.888Z,16.95
2023-03-02T04:43:25.840Z,16.42
2023-03-02T04:45:54.152Z,16.38
2023-03-02T04:48:22.117Z,17.98
2023-03-02T04:50:48.811Z,16.98
2023-03-02T04:53:15.463Z,16.85
2023-03-02T04:55:42.539Z,17.15
2023-03-02T04:58:09.235Z,15.82
2023-03-02T05:00:36.428Z,16.80
2023-03-02T05:03:04.150Z,17.98
2023-03-02T05:05:31.813Z,17.55
2023-03-02T05:07:58.668Z,18.23
2023-03-02T05:10:27.241Z,17.02
2023-03-02T05:12:54.624Z,17.77
2023-03-02T05:15:22.931Z,17.05
2023-03-02T05:17:49.609Z,18.67
2023-03-02T05:20:16.666Z,17.10
2023-03-02T05:22:43.442Z,17.90
2023-03-02T05:25:10.351Z,17.25
2023-03-02T05:27:36.990Z,17.77
2023-03-02T05:30:07.134Z,17.95
2023-03-02T05:32:33.814Z,18.55
2023-03-02T05:35:00.591Z,18.65
2023-03-02T05:37:27.141Z,18.73
2023-03-02T05:39:53.720Z,17.58
2023-03-02T05:42:20.338Z,18.02
2023-03-02T05:44:47.054Z,18.80
2023-03-02T05:47:13.732Z,17.90
2023-03-02T05:49:40.318Z,18.80
2023-03-02T05:52:06.950Z,17.58
2023-03-02T05:54:33.510Z,20.13
2023-03-02T05:57:00.385Z,17.88
2023-03-02T05:59:26.949Z,17.67
2023-03-02T06:01:58.718Z,17.65
2023-03-02T06:04:26.364Z,18.70
2023-03-02T06:06:52.928Z,19.40
2023-03-02T06:09:19.571Z,17.98
2023-03-02T06:11:46.247Z,18.27
2023-03-02T06:14:12.816Z,17.85
2023-03-02T06:16:39.516Z,17.15
2023-03-02T06:19:06.572Z,17.73
2023-03-02T06:21:33.365Z,19.17
2023-03-02T06:24:00.079Z,19.05
2023-03-02T06:26:26.670Z,18.98
2023-03-02T06:28:54.093Z,17.63
2023-03-02T06:31:21.533Z,16.60
2023-03-02T06:33:48.190Z,17.55
2023-03-02T06:36:16.977Z,16.02
2023-03-02T06:38:43.758Z,17.80
2023-03-02T06:41:10.387Z,17.33
2023-03-02T06:43:37.121Z,16.50
2023-03-02T06:46:04.185Z,18.00
2023-03-02T06:48:30.827Z,17.05
2023-03-02T06:50:58.222Z,17.55
2023-03-02T06:53:24.926Z,17.25
2023-03-02T06:55:51.657Z,17.35
2023-03-02T06:58:18.402Z,17.00
2023-03-02T07:00:44.979Z,17.63
2023-03-02T07:03:11.720Z,16.85
2023-03-02T07:05:38.335Z,16.40
2023-03-02T07:08:05.359Z,17.38
2023-03-02T07:10:33.281Z,16.58
2023-03-02T07:13:00.114Z,16.83
2023-03-02T07:15:26.693Z,16.73
2023-03-02T07:17:53.286Z,16.42
2023-03-02T07:20:19.999Z,14.88
2023-03-02T07:22:46.601Z,15.45
2023-03-02T07:25:13.749Z,16.65
2023-03-02T07:27:40.788Z,16.45
2023-03-02T07:30:08.414Z,16.33
2023-03-02T07:32:35.315Z,16.20
2023-03-02T07:35:02.056Z,16.42
2023-03-02T07:37:28.646Z,16.63
2023-03-02T07:39:55.195Z,16.35
2023-03-02T07:42:21.855Z,15.98
2023-03-02T07:44:48.497Z,16.20
2023-03-02T07:47:15.109Z,16.75
2023-03-02T07:49:41.841Z,14.90
2023-03-02T07:52:08.441Z,15.88
2023-03-02T07:54:35.027Z,16.35
2023-03-02T07:57:01.721Z,17.48
2023-03-02T07:59:29.187Z,16.67
2023-03-02T08:01:57.026Z,16.52
2023-03-02T08:04:24.563Z,16.95
2023-03-02T08:06:51.482Z,17.63
2023-03-02T08:09:18.276Z,17.48
2023-03-02T08:11:45.077Z,18.50
2023-03-02T08:14:11.895Z,18.17
2023-03-02T08:16:39.568Z,17.10
2023-03-02T08:19:06.953Z,18.27
2023-03-02T08:21:34.036Z,16.40
2023-03-02T08:24:00.853Z,16.35
2023-03-02T08:26:27.537Z,17.48
2023-03-02T08:28:54.307Z,17.52
2023-03-02T08:31:20.997Z,16.85
2023-03-02T08:33:47.730Z,17.38
2023-03-02T08:36:17.433Z,17.40
2023-03-02T08:38:45.720Z,16.95
2023-03-02T08:41:21.148Z,16.77
2023-03-02T08:43:48.133Z,17.73
2023-03-02T08:46:17.581Z,16.92
2023-03-02T08:48:44.621Z,19.50
2023-03-02T08:51:17.108Z,17.25
2023-03-02T08:53:46.425Z,17.20
2023-03-02T08:56:35.420Z,18.52
2023-03-02T08:59:05.570Z,18.17
2023-03-02T09:01:34.914Z,18.25
2023-03-02T09:04:02.939Z,17.80
2023-03-02T09:06:31.575Z,18.00
2023-03-02T09:08:58.692Z,19.17
2023-03-02T09:11:25.727Z,17.65
2023-03-02T09:13:53.055Z,17.52
2023-03-02T09:16:20.391Z,18.23
2023-03-02T09:18:48.119Z,17.50
2023-03-02T09:21:14.900Z,17.45
2023-03-02T09:23:41.947Z,17.80
2023-03-02T09:26:08.763Z,18.05
2023-03-02T09:28:36.911Z,18.77
2023-03-02T09:31:05.901Z,17.05
2023-03-02T09:33:33.433Z,17.17
2023-03-02T09:36:01.563Z,17.20
2023-03-02T09:38:28.183Z,17.10
2023-03-02T09:41:13.339Z,17.92
2023-03-02T09:43:48.983Z,16.42
2023-03-02T09:46:20.863Z,18.15
2023-03-02T09:48:53.388Z,16.90
2023-03-02T09:51:35.136Z,17.42
2023-03-02T09:54:14.198Z,16.95
2023-03-02T09:56:48.491Z,16.60
2023-03-02T09:59:17.886Z,17.83
2023-03-02T10:01:51.231Z,16.42
2023-03-02T10:04:30.286Z,17.52
2023-03-02T10:07:13.772Z,16.10
2023-03-02T10:09:41.279Z,16.33
2023-03-02T10:12:34.662Z,16.08
2023-03-02T10:15:26.207Z,16.85
2023-03-02T10:18:02.833Z,15.63
2023-03-02T10:20:43.033Z,15.85
2023-03-02T10:23:15.632Z,17.60
2023-03-02T10:25:50.654Z,16.75
2023-03-02T10:28:17.257Z,16.27
2023-03-02T10:30:47.174Z,16.83
2023-03-02T10:33:18.030Z,17.42
2023-03-02T10:35:49.925Z,16.15
2023-03-02T10:38:22.972Z,16.83
2023-03-02T10:41:00.168Z,16.43
2023-03-02T10:43:41.618Z,16.60
2023-03-02T10:46:10.882Z,16.50
2023-03-02T10:49:22.974Z,16.15
2023-03-02T10:51:59.624Z,16.02
2023-03-02T10:54:28.216Z,17.83
2023-03-02T10:57:01.359Z,15.90
2023-03-02T10:59:47.049Z,16.73
2023-03-02T11:02:19.158Z,16.13
2023-03-02T11:04:45.874Z,16.35
2023-03-02T11:07:19.378Z,17.45
2023-03-02T11:10:07.415Z,17.42
2023-03-02T11:12:36.849Z,17.10
2023-03-02T11:15:18.618Z,17.38
2023-03-02T11:17:48.931Z,17.48
2023-03-02T11:20:25.047Z,16.15
2023-03-02T11:23:03.118Z,16.83
2023-03-02T11:25:35.601Z,15.90
2023-03-02T11:28:09.966Z,16.02
2023-03-02T11:30:43.432Z,16.02
2023-03-02T11:33:25.516Z,16.50
2023-03-02T11:35:59.922Z,16.52
2023-03-02T11:38:32.703Z,16.13
2023-03-02T11:41:17.323Z,15.23
2023-03-02T11:43:44.021Z,16.30
2023-03-02T11:46:22.327Z,16.63
2023-03-02T11:48:53.171Z,17.88
2023-03-02T11:51:24.000Z,22.48
2023-03-02T11:53:57.907Z,14.88
2023-03-02T11:56:25.781Z,15.90
2023-03-02T11:59:17.784Z,15.90
2023-03-02T12:01:48.001Z,17.42
2023-03-02T12:04:35.021Z,25.95
2023-03-02T12:07:04.750Z,18.45
2023-03-02T12:09:37.476Z,17.00
2023-03-02T12:12:19.147Z,22.23
2023-03-02T12:14:45.866Z,17.17
2023-03-02T12:17:27.530Z,15.25
2023-03-02T12:20:20.249Z,15.93
2023-03-02T12:22:46.866Z,15.57
2023-03-02T12:25:19.440Z,16.20
2023-03-02T12:27:51.119Z,16.35
2023-03-02T12:30:27.043Z,17.00
2023-03-02T12:33:02.821Z,15.95
2023-03-02T12:35:32.679Z,16.77
2023-03-02T12:38:33.951Z,17.10
2023-03-02T12:41:21.283Z,16.25
2023-03-02T12:44:24.565Z,17.17
2023-03-02T12:46:52.052Z,16.50
2023-03-02T12:49:27.390Z,17.48
2023-03-02T12:51:57.753Z,16.35
2023-03-02T12:54:30.242Z,17.02
2023-03-02T12:57:19.165Z,16.33
2023-03-02T12:59:58.363Z,17.48
2023-03-02T13:02:34.744Z,16.23
2023-03-02T13:05:08.120Z,17.33
2023-03-02T13:07:39.289Z,17.83
2023-03-02T13:10:36.146Z,17.50
2023-03-02T13:13:14.796Z,16.30
2023-03-02T13:15:52.667Z,17.33
2023-03-02T13:18:21.419Z,17.83
2023-03-02T13:20:49.848Z,17.75
2023-03-02T13:23:17.706Z,16.45
2023-03-02T13:25:48.640Z,17.73
2023-03-02T13:28:36.700Z,16.52
2023-03-02T13:31:17.592Z,17.75
2023-03-02T13:33:46.073Z,17.30
2023-03-02T13:36:23.708Z,16.17
2023-03-02T13:38:53.269Z,17.30
2023-03-02T13:41:24.191Z,17.00
2023-03-02T13:43:50.887Z,16.10
2023-03-02T13:46:17.433Z,15.52
2023-03-02T13:49:07.528Z,16.08
2023-03-02T13:51:39.998Z,16.67
2023-03-02T13:54:27.835Z,17.13
2023-03-02T13:56:56.900Z,16.27
2023-03-02T13:59:23.797Z,16.48
2023-03-02T14:01:50.719Z,16.60
2023-03-02T14:04:23.509Z,16.80
2023-03-02T14:06:51.490Z,16.27
2023-03-02T14:09:18.582Z,14.27
2023-03-02T14:11:48.936Z,16.65
2023-03-02T14:14:22.742Z,16.50
2023-03-02T14:16:49.865Z,16.98
2023-03-02T14:19:18.425Z,16.13
2023-03-02T14:21:46.565Z,16.85
2023-03-02T14:24:13.241Z,17.75
2023-03-02T14:26:46.407Z,15.73
2023-03-02T14:29:26.756Z,16.00
2023-03-02T14:31:57.816Z,15.68
2023-03-02T14:34:24.420Z,16.63
2023-03-02T14:36:53.956Z,16.27
2023-03-02T14:39:23.758Z,16.45
2023-03-02T14:41:54.164Z,15.82
2023-03-02T14:44:22.108Z,17.25
2023-03-02T14:46:49.049Z,15.60
2023-03-02T14:49:15.643Z,15.07
2023-03-02T14:51:45.152Z,18.02
2023-03-02T14:54:18.161Z,19.50
2023-03-02T14:56:45.399Z,16.25
2023-03-02T14:59:15.504Z,15.25
2023-03-02T15:01:44.578Z,15.93
2023-03-02T15:04:11.326Z,15.55
2023-03-02T15:06:40.501Z,15.90
2023-03-02T15:09:08.515Z,16.17
2023-03-02T15:11:35.562Z,15.75
2023-03-02T15:14:02.630Z,15.60
2023-03-02T15:16:29.278Z,14.35
2023-03-02T15:18:58.729Z,15.52
2023-03-02T15:21:25.640Z,16.10
2023-03-02T15:23:52.273Z,15.35
2023-03-02T15:26:19.080Z,16.60
2023-03-02T15:28:49.173Z,15.32
2023-03-02T15:31:17.178Z,16.67
2023-03-02T15:33:45.585Z,16.63
2023-03-02T15:36:13.367Z,16.75
2023-03-02T15:38:40.386Z,15.98
2023-03-02T15:41:08.509Z,16.60
2023-03-02T15:43:35.070Z,16.95
2023-03-02T15:46:02.408Z,16.20
2023-03-02T15:48:29.945Z,16.48
2023-03-02T15:51:01.962Z,15.90
2023-03-02T15:53:29.885Z,14.32
2023-03-02T15:55:57.022Z,15.15
2023-03-02T15:58:23.971Z,14.73
2023-03-02T16:00:53.146Z,15.63
2023-03-02T16:03:19.740Z,14.95
2023-03-02T16:05:46.631Z,16.02
2023-03-02T16:08:13.208Z,15.02
2023-03-02T16:10:42.817Z,14.48
2023-03-02T16:13:11.840Z,15.88
2023-03-02T16:15:40.229Z,15.77
2023-03-02T16:18:11.264Z,15.35
2023-03-02T16:20:39.144Z,14.77
2023-03-02T16:23:07.726Z,14.10
2023-03-02T16:25:43.387Z,16.00
2023-03-02T16:28:11.920Z,15.90
2023-03-02T16:30:39.113Z,15.10
2023-03-02T16:33:08.145Z,14.10
2023-03-02T16:35:36.712Z,15.43
2023-03-02T16:38:04.663Z,14.63
2023-03-02T16:40:31.951Z,15.07
2023-03-02T16:42:58.841Z,15.20
2023-03-02T16:45:26.951Z,15.15
2023-03-02T16:47:53.687Z,14.18
2023-03-02T16:50:20.520Z,14.90
2023-03-02T16:52:47.025Z,15.57
2023-03-02T16:55:17.320Z,15.15
2023-03-02T16:57:44.700Z,15.57
2023-03-02T17:00:14.921Z,15.18
2023-03-02T17:02:41.830Z,13.77
2023-03-02T17:05:09.144Z,15.80
2023-03-02T17:07:35.962Z,13.45
2023-03-02T17:10:04.384Z,14.02
2023-03-02T17:12:30.943Z,13.50
2023-03-02T17:14:57.536Z,15.07
2023-03-02T17:17:24.098Z,14.73
2023-03-02T17:19:50.737Z,14.93
2023-03-02T17:22:17.401Z,16.20
2023-03-02T17:24:43.963Z,13.60
2023-03-02T17:27:22.763Z,14.23
2023-03-02T17:29:52.046Z,13.93
2023-03-02T17:32:19.181Z,14.50
2023-03-02T17:34:46.236Z,14.07
2023-03-02T17:37:12.849Z,13.77
2023-03-02T17:39:39.488Z,13.75
2023-03-02T17:42:06.783Z,14.02
2023-03-02T17:44:34.613Z,14.45
2023-03-02T17:47:05.415Z,14.57
2023-03-02T17:49:32.150Z,14.15
2023-03-02T17:51:58.771Z,15.30
2023-03-02T17:54:25.393Z,15.15
2023-03-02T17:56:52.007Z,14.68
2023-03-02T17:59:18.654Z,15.65
2023-03-02T18:01:45.223Z,15.65
2023-03-02T18:04:11.973Z,15.90
2023-03-02T18:06:38.718Z,15.27
2023-03-02T18:09:05.772Z,15.85
2023-03-02T18:11:32.624Z,15.30
2023-03-02T18:13:59.331Z,16.33
2023-03-02T18:16:28.424Z,14.65
2023-03-02T18:18:56.330Z,15.52
2023-03-02T18:21:23.091Z,15.27
2023-03-02T18:23:49.784Z,16.23
2023-03-02T18:26:16.663Z,15.90
2023-03-02T18:28:43.556Z,15.48
2023-03-02T18:31:12.710Z,15.63
2023-03-02T18:33:39.389Z,15.40
2023-03-02T18:36:06.351Z,16.38
2023-03-02T18:38:33.994Z,16.23
2023-03-02T18:41:03.530Z,16.80
2023-03-02T18:43:34.812Z,15.40
2023-03-02T18:46:04.258Z,15.68
2023-03-02T18:48:32.055Z,15.38
2023-03-02T18:50:59.065Z,17.88
2023-03-02T18:53:26.944Z,16.02
2023-03-02T18:55:56.725Z,16.73
2023-03-02T18:58:24.840Z,14.80
2023-03-02T19:00:53.421Z,15.48
2023-03-02T19:03:20.507Z,16.83
2023-03-02T19:05:47.133Z,16.38
2023-03-02T19:08:13.825Z,16.45
2023-03-02T19:10:42.296Z,16.92
2023-03-02T19:13:11.704Z,15.00
2023-03-02T19:15:42.269Z,15.15
2023-03-02T19:18:13.225Z,16.77
2023-03-02T19:20:39.895Z,17.33
2023-03-02T19:23:06.473Z,17.58
2023-03-02T19:25:33.087Z,15.10
2023-03-02T19:27:59.807Z,14.57
2023-03-02T19:30:27.349Z,16.48
2023-03-02T19:32:54.427Z,15.52
2023-03-02T19:35:24.249Z,15.32
2023-03-02T19:37:50.905Z,14.43
2023-03-02T19:40:19.655Z,15.30
2023-03-02T19:42:47.498Z,15.30
2023-03-02T19:45:23.676Z,15.60
2023-03-02T19:47:50.473Z,14.88
2023-03-02T19:50:19.395Z,14.90
2023-03-02T19:52:46.497Z,15.43
2023-03-02T19:55:14.752Z,15.63
2023-03-02T19:57:43.267Z,16.75
2023-03-02T20:00:15.269Z,14.45
2023-03-02T20:02:42.049Z,15.63
2023-03-02T20:05:10.506Z,16.05
2023-03-02T20:07:40.476Z,15.90
2023-03-02T20:10:10.180Z,15.32
2023-03-02T20:12:37.281Z,15.10
2023-03-02T20:15:06.465Z,14.90
2023-03-02T20:17:33.880Z,15.70
2023-03-02T20:20:01.411Z,15.18
2023-03-02T20:22:28.333Z,15.52
2023-03-02T20:24:55.171Z,16.15
2023-03-02T20:27:22.356Z,16.08
2023-03-02T20:29:49.484Z,15.98
2023-03-02T20:32:16.409Z,15.32
2023-03-02T20:34:43.660Z,15.35
2023-03-02T20:37:13.610Z,15.43
2023-03-02T20:39:42.468Z,15.80
2023-03-02T20:42:10.131Z,15.25
2023-03-02T20:44:37.409Z,15.15
2023-03-02T20:47:08.714Z,14.90
2023-03-02T20:49:37.357Z,16.83
2023-03-02T20:52:06.129Z,15.20
2023-03-02T20:54:37.510Z,15.25
2023-03-02T20:57:05.711Z,15.55
2023-03-02T20:59:32.461Z,16.70
2023-03-02T21:01:59.284Z,15.80
2023-03-02T21:04:26.386Z,16.25
2023-03-02T21:06:53.207Z,15.95
2023-03-02T21:09:20.207Z,15.93
2023-03-02T21:11:47.072Z,16.88
2023-03-02T21:14:14.295Z,16.13
2023-03-02T21:16:43.706Z,13.40
2023-03-02T21:19:15.150Z,16.65
2023-03-02T21:21:42.899Z,16.13
2023-03-02T21:24:12.571Z,17.85
2023-03-02T21:26:41.685Z,16.33
2023-03-02T21:29:09.764Z,17.05
2023-03-02T21:31:36.543Z,17.05
2023-03-02T21:34:03.672Z,16.00
2023-03-02T21:36:30.584Z,16.30
2023-03-02T21:38:57.622Z,15.55
2023-03-02T21:41:24.703Z,16.80
2023-03-02T21:43:51.534Z,15.02
2023-03-02T21:46:21.929Z,16.55
2023-03-02T21:48:50.444Z,16.20
2023-03-02T21:51:17.627Z,15.43
2023-03-02T21:53:44.264Z,15.73
2023-03-02T21:56:20.684Z,15.88
2023-03-02T21:58:52.942Z,16.77
2023-03-02T22:01:20.887Z,16.35
2023-03-02T22:03:47.708Z,17.33
2023-03-02T22:06:26.200Z,18.20
2023-03-02T22:08:53.617Z,17.02
2023-03-02T22:11:24.247Z,15.88
2023-03-02T22:13:53.195Z,16.50
2023-03-02T22:16:23.104Z,17.05
2023-03-02T22:18:54.774Z,16.38
2023-03-02T22:21:27.485Z,17.17
2023-03-02T22:23:58.396Z,16.90
2023-03-02T22:26:24.978Z,16.80
2023-03-02T22:28:51.933Z,16.88
2023-03-02T22:31:22.580Z,18.00
2023-03-02T22:33:49.925Z,16.73
2023-03-02T22:36:27.937Z,17.13
2023-03-02T22:38:56.929Z,17.58
2023-03-02T22:41:23.738Z,16.05
2023-03-02T22:43:52.946Z,16.13
2023-03-02T22:46:21.872Z,16.63
2023-03-02T22:48:52.880Z,16.58
2023-03-02T22:51:27.888Z,16.40
2023-03-02T22:53:58.078Z,17.55
2023-03-02T22:56:43.784Z,16.55
2023-03-02T22:59:26.434Z,18.00
2023-03-02T23:02:25.692Z,14.82
2023-03-02T23:04:52.346Z,15.85
2023-03-02T23:07:20.974Z,16.80
2023-03-02T23:09:49.031Z,16.65
2023-03-02T23:12:33.463Z,17.25
2023-03-02T23:15:00.137Z,16.25
2023-03-02T23:17:38.819Z,16.60
2023-03-02T23:20:09.367Z,17.00
2023-03-02T23:22:36.701Z,17.30
2023-03-02T23:25:03.662Z,18.00
2023-03-02T23:27:30.385Z,17.55
2023-03-02T23:29:57.010Z,16.58
2023-03-02T23:32:23.781Z,16.45
2023-03-02T23:34:50.437Z,17.90
2023-03-02T23:37:16.993Z,16.77
2023-03-02T23:39:46.008Z,16.40
2023-03-02T23:42:13.000Z,17.38
2023-03-02T23:44:39.537Z,17.35
2023-03-02T23:47:06.108Z,16.05
2023-03-02T23:49:32.678Z,17.00
2023-03-02T23:51:59.411Z,17.50
2023-03-02T23:54:25.966Z,17.63
2023-03-02T23:56:52.542Z,15.55
2023-03-02T23:59:19.284Z,15.98
